createdAt,value
2023-05-08T00:00:44.743Z,30.03
2023-05-08T00:01:34.818Z,27.77
2023-05-08T00:02:24.970Z,31.86
2023-05-08T00:03:15.111Z,32.35
2023-05-08T00:04:05.204Z,27.21
2023-05-08T00:04:55.181Z,31.68
2023-05-08T00:05:45.132Z,28.94
2023-05-08T00:06:35.262Z,30.60
2023-05-08T00:07:25.234Z,29.89
2023-05-08T00:08:15.404Z,29.14
2023-05-08T00:09:05.347Z,29.61
2023-05-08T00:09:55.488Z,27.49
2023-05-08T00:10:45.461Z,26.57
2023-05-08T00:11:35.605Z,26.39
2023-05-08T00:12:25.578Z,31.30
2023-05-08T00:13:15.860Z,30.54
2023-05-08T00:14:05.686Z,27.92
2023-05-08T00:14:55.837Z,29.18
2023-05-08T00:15:45.801Z,28.29
2023-05-08T00:16:35.998Z,29.00
2023-05-08T00:17:25.997Z,31.89
2023-05-08T00:18:16.096Z,30.30
2023-05-08T00:19:06.065Z,32.22
2023-05-08T00:19:56.173Z,29.97
2023-05-08T00:20:46.181Z,29.13
2023-05-08T00:21:36.294Z,32.46
2023-05-08T00:22:26.322Z,27.43
2023-05-08T00:23:16.458Z,29.87
2023-05-08T00:24:06.416Z,32.32
2023-05-08T00:24:56.522Z,29.83
2023-05-08T00:25:46.532Z,28.84
2023-05-08T00:26:36.644Z,33.20
2023-05-08T00:27:26.672Z,31.50
2023-05-08T00:28:16.781Z,30.19
2023-05-08T00:29:07.050Z,31.31
2023-05-08T00:29:56.959Z,31.56
2023-05-08T00:30:46.890Z,32.35
2023-05-08T00:31:36.999Z,28.27
2023-05-08T00:32:27.209Z,31.83
2023-05-08T00:33:17.124Z,34.89
2023-05-08T00:34:07.099Z,34.57
2023-05-08T00:34:57.207Z,31.97
2023-05-08T00:35:47.253Z,33.09
2023-05-08T00:36:37.324Z,30.99
2023-05-08T00:37:27.342Z,32.90
2023-05-08T00:38:17.469Z,34.49
2023-05-08T00:39:07.484Z,29.85
2023-05-08T00:39:57.649Z,25.08
2023-05-08T00:40:47.620Z,30.51
2023-05-08T00:41:37.763Z,30.23
2023-05-08T00:42:27.761Z,26.66
2023-05-08T00:43:17.813Z,28.19
2023-05-08T00:44:07.868Z,27.99
2023-05-08T00:44:58.035Z,30.84
2023-05-08T00:45:48.010Z,30.64
2023-05-08T00:46:38.138Z,29.06
2023-05-08T00:47:28.095Z,28.94
2023-05-08T00:48:18.156Z,29.16
2023-05-08T00:49:08.164Z,26.92
2023-05-08T00:49:58.335Z,29.36
2023-05-08T00:50:48.307Z,27.79
2023-05-08T00:51:38.447Z,32.02
2023-05-08T00:52:28.424Z,25.00
2023-05-08T00:53:18.499Z,29.47
2023-05-08T00:54:08.561Z,32.62
2023-05-08T00:54:59.248Z,30.61
2023-05-08T00:55:48.656Z,29.96
2023-05-08T00:56:38.799Z,30.09
2023-05-08T00:57:28.783Z,27.90
2023-05-08T00:58:18.862Z,27.67
2023-05-08T00:59:08.876Z,28.84
2023-05-08T00:59:59.018Z,34.47
2023-05-08T01:00:49.017Z,31.27
2023-05-08T01:01:39.231Z,34.29
2023-05-08T01:02:29.202Z,29.54
2023-05-08T01:03:19.231Z,32.64
2023-05-08T01:04:09.233Z,29.95
2023-05-08T01:04:59.355Z,31.95
2023-05-08T01:05:49.339Z,33.16
2023-05-08T01:06:39.490Z,34.91
2023-05-08T01:07:29.450Z,32.89
2023-05-08T01:08:19.527Z,35.96
2023-05-08T01:09:09.608Z,33.59
2023-05-08T01:09:59.723Z,33.98
2023-05-08T01:10:49.679Z,37.29
2023-05-08T01:11:39.835Z,34.61
2023-05-08T01:12:29.800Z,38.65
2023-05-08T01:13:20.112Z,30.29
2023-05-08T01:14:09.903Z,32.05
2023-05-08T01:15:00.054Z,34.36
2023-05-08T01:15:50.067Z,31.16
2023-05-08T01:16:40.237Z,35.11
2023-05-08T01:17:30.119Z,33.26
2023-05-08T01:18:20.218Z,33.02
2023-05-08T01:19:10.276Z,32.15
2023-05-08T01:20:00.396Z,32.29
2023-05-08T01:20:50.326Z,33.77
2023-05-08T01:21:40.410Z,33.36
2023-05-08T01:22:30.448Z,32.36
2023-05-08T01:23:20.563Z,31.37
2023-05-08T01:24:10.544Z,34.51
2023-05-08T01:25:00.635Z,28.53
2023-05-08T01:25:50.658Z,31.08
2023-05-08T01:26:40.753Z,34.80
2023-05-08T01:27:30.769Z,30.82
2023-05-08T01:28:20.902Z,31.47
2023-05-08T01:29:10.881Z,28.64
2023-05-08T01:30:00.979Z,30.77
2023-05-08T01:30:50.994Z,30.62
2023-05-08T01:31:41.096Z,30.59
2023-05-08T01:32:31.198Z,30.86
2023-05-08T01:33:21.471Z,30.06
2023-05-08T01:34:11.240Z,33.11
2023-05-08T01:35:01.421Z,31.65
2023-05-08T01:35:51.358Z,34.21
2023-05-08T01:36:41.442Z,32.69
2023-05-08T01:37:31.454Z,31.16
2023-05-08T01:38:21.592Z,36.12
2023-05-08T01:39:11.563Z,27.39
2023-05-08T01:40:01.673Z,31.62
2023-05-08T01:40:51.693Z,29.58
2023-05-08T01:41:42.544Z,29.82
2023-05-08T01:42:31.805Z,30.63
2023-05-08T01:43:21.932Z,36.08
2023-05-08T01:44:11.909Z,30.27
2023-05-08T01:45:02.014Z,33.98
2023-05-08T01:45:52.028Z,31.95
2023-05-08T01:46:42.176Z,29.38
2023-05-08T01:47:32.200Z,33.88
2023-05-08T01:48:22.379Z,33.30
2023-05-08T01:49:12.284Z,33.24
2023-05-08T01:50:02.361Z,32.81
2023-05-08T01:50:52.368Z,30.04
2023-05-08T01:51:42.469Z,31.18
2023-05-08T01:52:32.487Z,30.93
2023-05-08T01:53:22.615Z,30.82
2023-05-08T01:54:12.586Z,33.27
2023-05-08T01:55:02.717Z,32.78
2023-05-08T01:55:52.693Z,31.57
2023-05-08T01:56:42.814Z,32.64
2023-05-08T01:57:32.789Z,35.37
2023-05-08T01:58:22.964Z,33.47
2023-05-08T01:59:13.550Z,31.71
2023-05-08T02:00:03.038Z,31.25
2023-05-08T02:00:53.049Z,28.39
2023-05-08T02:01:43.155Z,32.71
2023-05-08T02:02:33.242Z,32.57
2023-05-08T02:03:23.312Z,32.31
2023-05-08T02:04:13.270Z,31.16
2023-05-08T02:05:03.384Z,29.54
2023-05-08T02:05:53.310Z,32.17
2023-05-08T02:06:43.410Z,28.44
2023-05-08T02:07:33.414Z,34.13
2023-05-08T02:08:23.543Z,31.02
2023-05-08T02:09:13.519Z,31.86
2023-05-08T02:10:03.630Z,32.65
2023-05-08T02:10:53.640Z,33.58
2023-05-08T02:11:43.739Z,37.18
2023-05-08T02:12:33.755Z,36.60
2023-05-08T02:13:23.944Z,33.76
2023-05-08T02:14:13.865Z,35.37
2023-05-08T02:15:03.969Z,30.42
2023-05-08T02:15:54.000Z,33.06
2023-05-08T02:16:44.097Z,31.70
2023-05-08T02:17:34.120Z,37.23
2023-05-08T02:18:24.233Z,32.35
2023-05-08T02:19:14.209Z,31.40
2023-05-08T02:20:04.331Z,34.89
2023-05-08T02:20:54.353Z,33.13
2023-05-08T02:21:44.434Z,33.00
2023-05-08T02:22:34.443Z,35.57
2023-05-08T02:23:24.597Z,36.48
2023-05-08T02:24:14.564Z,31.46
2023-05-08T02:25:05.772Z,34.48
2023-05-08T02:25:54.718Z,31.37
2023-05-08T02:26:44.870Z,28.98
2023-05-08T02:27:34.843Z,33.71
2023-05-08T02:28:25.024Z,32.46
2023-05-08T02:29:14.973Z,34.15
2023-05-08T02:30:05.061Z,29.54
2023-05-08T02:30:55.085Z,32.68
2023-05-08T02:31:45.285Z,31.72
2023-05-08T02:32:35.248Z,29.44
2023-05-08T02:33:25.360Z,35.40
2023-05-08T02:34:15.334Z,29.94
2023-05-08T02:35:05.507Z,29.40
2023-05-08T02:35:55.464Z,28.31
2023-05-08T02:36:45.556Z,30.11
2023-05-08T02:37:35.575Z,28.86
2023-05-08T02:38:25.708Z,28.09
2023-05-08T02:39:15.684Z,25.42
2023-05-08T02:40:05.852Z,34.46
2023-05-08T02:40:55.847Z,31.32
2023-05-08T02:41:46.008Z,30.45
2023-05-08T02:42:35.947Z,32.66
2023-05-08T02:43:26.054Z,29.23
2023-05-08T02:44:16.071Z,26.03
2023-05-08T02:45:06.195Z,29.12
2023-05-08T02:45:56.268Z,27.16
2023-05-08T02:46:46.342Z,29.80
2023-05-08T02:47:36.337Z,30.79
2023-05-08T02:48:26.494Z,29.06
2023-05-08T02:49:16.427Z,28.37
2023-05-08T02:50:06.536Z,30.05
2023-05-08T02:50:56.566Z,33.35
2023-05-08T02:51:46.792Z,28.92
2023-05-08T02:52:36.682Z,30.61
2023-05-08T02:53:26.837Z,33.18
2023-05-08T02:54:16.809Z,30.79
2023-05-08T02:55:06.982Z,31.59
2023-05-08T02:55:56.919Z,32.31
2023-05-08T02:56:47.029Z,31.50
2023-05-08T02:57:37.045Z,35.16
2023-05-08T02:58:27.179Z,33.49
2023-05-08T02:59:17.160Z,31.70
2023-05-08T03:00:07.322Z,32.08
2023-05-08T03:00:57.262Z,33.39
2023-05-08T03:01:47.464Z,32.18
2023-05-08T03:02:37.491Z,32.29
2023-05-08T03:03:27.751Z,35.05
2023-05-08T03:04:17.507Z,29.94
2023-05-08T03:05:07.678Z,29.66
2023-05-08T03:05:57.661Z,33.13
2023-05-08T03:06:47.722Z,31.00
2023-05-08T03:07:37.749Z,26.28
2023-05-08T03:08:27.862Z,32.78
2023-05-08T03:09:17.835Z,28.51
2023-05-08T03:10:08.012Z,27.90
2023-05-08T03:10:57.959Z,28.39
2023-05-08T03:11:48.055Z,26.71
2023-05-08T03:12:39.433Z,29.36
2023-05-08T03:13:29.190Z,27.49
2023-05-08T03:14:18.172Z,28.11
2023-05-08T03:15:08.245Z,33.22
2023-05-08T03:15:58.355Z,30.58
2023-05-08T03:16:48.398Z,29.85
2023-05-08T03:17:38.495Z,29.70
2023-05-08T03:18:28.551Z,33.97
2023-05-08T03:19:18.523Z,30.46
2023-05-08T03:20:08.710Z,29.85
2023-05-08T03:20:59.186Z,29.19
2023-05-08T03:21:48.747Z,32.20
2023-05-08T03:22:38.834Z,30.47
2023-05-08T03:23:28.836Z,32.33
2023-05-08T03:24:18.969Z,31.63
2023-05-08T03:25:08.936Z,27.98
2023-05-08T03:25:59.042Z,27.28
2023-05-08T03:26:49.072Z,28.76
2023-05-08T03:27:39.156Z,34.73
2023-05-08T03:28:29.180Z,30.50
2023-05-08T03:29:19.305Z,29.62
2023-05-08T03:30:09.371Z,30.02
2023-05-08T03:30:59.634Z,31.72
2023-05-08T03:31:49.446Z,34.21
2023-05-08T03:32:40.117Z,36.30
2023-05-08T03:33:29.552Z,34.04
2023-05-08T03:34:19.648Z,33.36
2023-05-08T03:35:09.688Z,27.62
2023-05-08T03:35:59.835Z,33.21
2023-05-08T03:36:49.762Z,32.18
2023-05-08T03:37:39.843Z,32.62
2023-05-08T03:38:29.865Z,32.58
2023-05-08T03:39:20.018Z,31.55
2023-05-08T03:40:11.233Z,30.15
2023-05-08T03:41:00.376Z,30.31
2023-05-08T03:41:50.368Z,30.58
2023-05-08T03:42:40.497Z,30.21
2023-05-08T03:43:30.464Z,31.43
2023-05-08T03:44:20.665Z,33.92
2023-05-08T03:45:10.579Z,33.40
2023-05-08T03:46:00.730Z,36.36
2023-05-08T03:46:50.762Z,28.91
2023-05-08T03:47:47.326Z,35.89
2023-05-08T03:48:30.805Z,34.45
2023-05-08T03:49:21.415Z,33.82
2023-05-08T03:50:11.135Z,35.45
2023-05-08T03:51:00.960Z,36.06
2023-05-08T03:51:51.099Z,32.83
2023-05-08T03:52:41.086Z,30.77
2023-05-08T03:53:31.255Z,36.48
2023-05-08T03:54:21.184Z,36.02
2023-05-08T03:55:11.325Z,38.45
2023-05-08T03:56:01.298Z,36.47
2023-05-08T03:56:51.346Z,37.36
2023-05-08T03:57:41.372Z,40.85
2023-05-08T03:58:31.500Z,43.18
2023-05-08T03:59:21.482Z,43.75
2023-05-08T04:00:11.915Z,44.82
2023-05-08T04:01:01.600Z,43.38
2023-05-08T04:01:51.740Z,43.42
2023-05-08T04:02:42.559Z,44.90
2023-05-08T04:03:31.864Z,40.74
2023-05-08T04:04:21.789Z,41.14
2023-05-08T04:05:11.896Z,36.74
2023-05-08T04:06:01.921Z,44.07
2023-05-08T04:06:52.036Z,42.37
2023-05-08T04:07:42.018Z,41.67
2023-05-08T04:08:32.199Z,40.11
2023-05-08T04:09:22.124Z,41.81
2023-05-08T04:10:12.581Z,35.45
2023-05-08T04:11:02.335Z,41.76
2023-05-08T04:11:52.384Z,33.88
2023-05-08T04:12:42.394Z,39.38
2023-05-08T04:13:32.581Z,34.15
2023-05-08T04:14:22.491Z,40.05
2023-05-08T04:15:13.789Z,37.86
2023-05-08T04:16:02.622Z,37.56
2023-05-08T04:16:52.801Z,39.38
2023-05-08T04:17:42.802Z,39.55
2023-05-08T04:18:32.875Z,42.08
2023-05-08T04:19:22.849Z,41.33
2023-05-08T04:20:12.920Z,41.79
2023-05-08T04:21:03.034Z,35.81
2023-05-08T04:21:53.078Z,40.91
2023-05-08T04:22:43.087Z,40.52
2023-05-08T04:23:33.229Z,43.02
2023-05-08T04:24:23.735Z,38.65
2023-05-08T04:25:13.557Z,37.83
2023-05-08T04:26:05.381Z,41.46
2023-05-08T04:26:53.446Z,39.38
2023-05-08T04:27:43.432Z,41.56
2023-05-08T04:28:33.564Z,39.38
2023-05-08T04:29:23.536Z,39.72
2023-05-08T04:30:13.622Z,42.08
2023-05-08T04:31:03.678Z,41.83
2023-05-08T04:31:53.819Z,44.67
2023-05-08T04:32:45.629Z,43.42
2023-05-08T04:33:33.917Z,49.38
2023-05-08T04:34:23.926Z,39.17
2023-05-08T04:35:14.586Z,42.56
2023-05-08T04:36:04.052Z,46.98
2023-05-08T04:36:54.118Z,48.44
2023-05-08T04:37:44.126Z,43.27
2023-05-08T04:38:34.252Z,40.02
2023-05-08T04:39:24.232Z,45.45
2023-05-08T04:40:14.409Z,44.15
2023-05-08T04:41:04.431Z,46.31
2023-05-08T04:41:54.443Z,43.60
2023-05-08T04:42:44.487Z,50.08
2023-05-08T04:43:34.596Z,43.67
2023-05-08T04:44:24.575Z,43.78
2023-05-08T04:45:14.920Z,43.98
2023-05-08T04:46:04.773Z,44.59
2023-05-08T04:46:54.793Z,46.51
2023-05-08T04:47:44.860Z,44.60
2023-05-08T04:48:34.951Z,47.85
2023-05-08T04:49:24.927Z,47.62
2023-05-08T04:50:15.113Z,48.87
2023-05-08T04:51:05.042Z,48.66
2023-05-08T04:51:55.143Z,46.26
2023-05-08T04:52:45.112Z,47.16
2023-05-08T04:53:35.282Z,49.43
2023-05-08T04:54:25.235Z,44.02
2023-05-08T04:55:15.433Z,49.56
2023-05-08T04:56:05.315Z,47.16
2023-05-08T04:56:55.386Z,51.92
2023-05-08T04:57:45.404Z,51.39
2023-05-08T04:58:35.562Z,52.04
2023-05-08T04:59:25.503Z,49.84
2023-05-08T05:00:15.674Z,51.87
2023-05-08T05:01:05.612Z,50.15
2023-05-08T05:01:55.760Z,54.92
2023-05-08T05:02:45.826Z,52.67
2023-05-08T05:03:35.890Z,52.39
2023-05-08T05:04:25.856Z,52.24
2023-05-08T05:05:16.009Z,51.34
2023-05-08T05:06:05.955Z,47.98
2023-05-08T05:06:56.056Z,42.98
2023-05-08T05:07:46.079Z,52.07
2023-05-08T05:08:36.208Z,50.60
2023-05-08T05:09:26.149Z,45.67
2023-05-08T05:10:16.268Z,49.09
2023-05-08T05:11:06.280Z,43.69
2023-05-08T05:11:58.072Z,50.09
2023-05-08T05:12:46.453Z,45.64
2023-05-08T05:13:36.547Z,50.19
2023-05-08T05:14:26.535Z,45.79
2023-05-08T05:15:16.705Z,48.04
2023-05-08T05:16:06.649Z,43.50
2023-05-08T05:16:56.704Z,51.18
2023-05-08T05:17:46.883Z,49.01
2023-05-08T05:18:36.890Z,46.58
2023-05-08T05:19:26.873Z,47.45
2023-05-08T05:20:17.044Z,46.30
2023-05-08T05:21:06.976Z,48.00
2023-05-08T05:21:57.082Z,43.13
2023-05-08T05:22:47.112Z,47.60
2023-05-08T05:23:37.234Z,41.94
2023-05-08T05:24:27.179Z,44.45
2023-05-08T05:25:17.288Z,37.75
2023-05-08T05:26:07.310Z,41.32
2023-05-08T05:26:57.430Z,40.60
2023-05-08T05:27:47.424Z,42.31
2023-05-08T05:28:38.624Z,44.31
2023-05-08T05:29:27.536Z,38.98
2023-05-08T05:30:18.174Z,40.82
2023-05-08T05:31:07.740Z,41.13
2023-05-08T05:31:57.736Z,40.00
2023-05-08T05:32:47.798Z,37.72
2023-05-08T05:33:37.788Z,39.78
2023-05-08T05:34:27.827Z,43.55
2023-05-08T05:35:17.907Z,44.49
2023-05-08T05:36:07.926Z,42.74
2023-05-08T05:36:57.988Z,46.50
2023-05-08T05:37:48.081Z,38.29
2023-05-08T05:38:38.106Z,40.00
2023-05-08T05:39:29.666Z,38.41
2023-05-08T05:40:18.223Z,38.45
2023-05-08T05:41:08.281Z,38.92
2023-05-08T05:41:58.367Z,39.15
2023-05-08T05:42:48.395Z,39.47
2023-05-08T05:43:38.427Z,42.94
2023-05-08T05:44:28.486Z,39.80
2023-05-08T05:45:19.142Z,40.58
2023-05-08T05:46:08.710Z,44.01
2023-05-08T05:46:58.788Z,38.51
2023-05-08T05:47:48.802Z,44.21
2023-05-08T05:48:38.818Z,43.05
2023-05-08T05:49:28.898Z,41.09
2023-05-08T05:50:18.955Z,39.63
2023-05-08T05:51:09.030Z,35.65
2023-05-08T05:51:59.104Z,42.42
2023-05-08T05:52:49.148Z,38.95
2023-05-08T05:53:39.170Z,43.15
2023-05-08T05:54:29.238Z,34.77
2023-05-08T05:55:19.326Z,36.42
2023-05-08T05:56:09.380Z,36.95
2023-05-08T05:56:59.463Z,37.60
2023-05-08T05:57:49.516Z,39.89
2023-05-08T05:58:39.553Z,37.88
2023-05-08T05:59:29.620Z,36.99
2023-05-08T06:00:19.691Z,37.60
2023-05-08T06:01:09.766Z,35.64
2023-05-08T06:01:59.888Z,36.61
2023-05-08T06:02:50.022Z,35.48
2023-05-08T06:03:40.030Z,37.10
2023-05-08T06:04:30.076Z,36.25
2023-05-08T06:05:20.027Z,33.94
2023-05-08T06:06:10.113Z,31.95
2023-05-08T06:07:00.187Z,36.25
2023-05-08T06:07:50.232Z,34.76
2023-05-08T06:08:40.304Z,37.95
2023-05-08T06:09:30.365Z,35.97
2023-05-08T06:10:20.448Z,39.34
2023-05-08T06:11:10.499Z,38.70
2023-05-08T06:12:00.588Z,37.53
2023-05-08T06:12:50.686Z,39.34
2023-05-08T06:13:40.698Z,37.77
2023-05-08T06:14:30.764Z,32.83
2023-05-08T06:15:20.826Z,34.54
2023-05-08T06:16:10.909Z,33.43
2023-05-08T06:17:01.009Z,33.98
2023-05-08T06:17:51.126Z,30.98
2023-05-08T06:18:41.084Z,37.35
2023-05-08T06:19:31.158Z,33.32
2023-05-08T06:20:21.224Z,36.34
2023-05-08T06:21:11.293Z,37.29
2023-05-08T06:22:01.360Z,34.66
2023-05-08T06:22:51.441Z,34.26
2023-05-08T06:23:41.505Z,30.36
2023-05-08T06:24:31.574Z,31.24
2023-05-08T06:25:21.647Z,30.67
2023-05-08T06:26:11.703Z,34.52
2023-05-08T06:27:01.786Z,40.22
2023-05-08T06:27:51.873Z,38.11
2023-05-08T06:28:41.936Z,38.90
2023-05-08T06:29:32.014Z,38.39
2023-05-08T06:30:22.072Z,36.42
2023-05-08T06:31:12.245Z,36.50
2023-05-08T06:32:02.221Z,35.55
2023-05-08T06:32:52.335Z,37.98
2023-05-08T06:33:42.414Z,36.19
2023-05-08T06:34:32.370Z,38.34
2023-05-08T06:35:22.432Z,35.03
2023-05-08T06:36:12.494Z,32.00
2023-05-08T06:37:02.555Z,33.89
2023-05-08T06:37:52.641Z,33.03
2023-05-08T06:38:42.671Z,29.51
2023-05-08T06:39:32.740Z,29.63
2023-05-08T06:40:22.796Z,29.68
2023-05-08T06:41:15.205Z,30.67
2023-05-08T06:42:02.930Z,29.64
2023-05-08T06:42:53.000Z,30.08
2023-05-08T06:43:43.653Z,30.12
2023-05-08T06:44:33.070Z,31.39
2023-05-08T06:45:23.140Z,32.77
2023-05-08T06:46:13.258Z,35.81
2023-05-08T06:47:04.293Z,33.75
2023-05-08T06:47:53.410Z,36.56
2023-05-08T06:48:43.383Z,37.48
2023-05-08T06:49:33.478Z,36.21
2023-05-08T06:50:23.509Z,33.30
2023-05-08T06:51:13.571Z,40.09
2023-05-08T06:52:03.645Z,38.25
2023-05-08T06:52:53.722Z,37.34
2023-05-08T06:53:43.753Z,40.65
2023-05-08T06:54:33.827Z,39.04
2023-05-08T06:55:23.895Z,36.88
2023-05-08T06:56:13.969Z,34.54
2023-05-08T06:57:04.033Z,40.06
2023-05-08T06:57:54.112Z,34.99
2023-05-08T06:58:48.318Z,37.67
2023-05-08T06:59:35.209Z,37.68
2023-05-08T07:00:24.274Z,38.20
2023-05-08T07:01:14.365Z,37.93
2023-05-08T07:02:04.551Z,40.21
2023-05-08T07:02:54.517Z,38.60
2023-05-08T07:03:44.492Z,41.71
2023-05-08T07:04:34.596Z,44.00
2023-05-08T07:05:24.674Z,37.40
2023-05-08T07:06:14.699Z,37.53
2023-05-08T07:07:04.763Z,38.05
2023-05-08T07:07:54.848Z,36.78
2023-05-08T07:08:44.872Z,37.93
2023-05-08T07:09:34.944Z,36.64
2023-05-08T07:10:26.663Z,42.81
2023-05-08T07:11:15.081Z,41.98
2023-05-08T07:12:06.194Z,44.95
2023-05-08T07:12:55.259Z,41.42
2023-05-08T07:13:45.287Z,39.31
2023-05-08T07:14:35.347Z,40.37
2023-05-08T07:15:26.925Z,34.85
2023-05-08T07:16:15.565Z,38.66
2023-05-08T07:17:05.511Z,35.05
2023-05-08T07:17:55.629Z,31.02
2023-05-08T07:18:45.627Z,32.71
2023-05-08T07:19:35.700Z,32.80
2023-05-08T07:20:25.821Z,31.64
2023-05-08T07:21:15.931Z,32.70
2023-05-08T07:22:06.033Z,31.71
2023-05-08T07:22:55.938Z,33.27
2023-05-08T07:23:45.973Z,35.73
2023-05-08T07:24:36.038Z,37.12
2023-05-08T07:25:26.112Z,33.42
2023-05-08T07:26:16.193Z,34.17
2023-05-08T07:27:06.257Z,38.91
2023-05-08T07:27:56.348Z,41.99
2023-05-08T07:28:46.373Z,43.24
2023-05-08T07:29:36.438Z,43.13
2023-05-08T07:30:26.524Z,41.98
2023-05-08T07:31:16.636Z,37.66
2023-05-08T07:32:06.633Z,34.10
2023-05-08T07:32:56.706Z,34.76
2023-05-08T07:33:46.753Z,34.23
2023-05-08T07:34:36.766Z,36.59
2023-05-08T07:35:26.834Z,34.64
2023-05-08T07:36:16.898Z,37.50
2023-05-08T07:37:07.031Z,30.83
2023-05-08T07:37:57.020Z,33.65
2023-05-08T07:38:47.084Z,32.99
2023-05-08T07:39:37.148Z,32.24
2023-05-08T07:40:27.205Z,34.37
2023-05-08T07:41:17.324Z,37.91
2023-05-08T07:42:07.304Z,29.97
2023-05-08T07:42:57.380Z,30.02
2023-05-08T07:43:47.448Z,27.37
2023-05-08T07:44:50.979Z,31.21
2023-05-08T07:45:28.587Z,30.86
2023-05-08T07:46:17.690Z,31.04
2023-05-08T07:47:07.707Z,29.30
2023-05-08T07:47:57.814Z,33.23
2023-05-08T07:48:47.757Z,33.27
2023-05-08T07:49:37.810Z,34.01
2023-05-08T07:50:27.877Z,32.81
2023-05-08T07:51:17.950Z,40.80
2023-05-08T07:52:08.021Z,34.70
2023-05-08T07:52:58.127Z,39.85
2023-05-08T07:53:48.122Z,36.80
2023-05-08T07:54:38.199Z,35.72
2023-05-08T07:55:28.216Z,36.62
2023-05-08T07:56:18.292Z,35.77
2023-05-08T07:57:08.343Z,35.77
2023-05-08T07:57:58.416Z,40.15
2023-05-08T07:58:48.441Z,37.45
2023-05-08T07:59:38.513Z,39.55
2023-05-08T08:00:28.577Z,32.55
2023-05-08T08:01:18.658Z,28.83
2023-05-08T08:02:08.725Z,30.87
2023-05-08T08:02:58.914Z,33.52
2023-05-08T08:03:48.929Z,30.50
2023-05-08T08:04:38.929Z,29.52
2023-05-08T08:05:28.914Z,27.44
2023-05-08T08:06:18.989Z,27.35
2023-05-08T08:07:09.057Z,30.58
2023-05-08T08:07:59.146Z,30.49
2023-05-08T08:08:49.292Z,28.64
2023-05-08T08:09:39.257Z,25.00
2023-05-08T08:10:29.291Z,27.24
2023-05-08T08:11:19.365Z,25.00
2023-05-08T08:12:09.426Z,29.07
2023-05-08T08:12:59.543Z,29.83
2023-05-08T08:13:49.535Z,26.19
2023-05-08T08:14:39.609Z,29.20
2023-05-08T08:15:30.189Z,31.20
2023-05-08T08:16:19.742Z,30.96
2023-05-08T08:17:09.797Z,33.39
2023-05-08T08:17:59.876Z,36.96
2023-05-08T08:18:49.903Z,31.13
2023-05-08T08:19:39.902Z,26.81
2023-05-08T08:20:29.970Z,30.67
2023-05-08T08:21:20.030Z,26.98
2023-05-08T08:22:10.133Z,30.20
2023-05-08T08:23:00.180Z,30.65
2023-05-08T08:23:50.200Z,32.11
2023-05-08T08:24:40.476Z,26.29
2023-05-08T08:25:30.320Z,25.64
2023-05-08T08:26:20.383Z,29.74
2023-05-08T08:27:10.446Z,32.71
2023-05-08T08:28:00.542Z,31.59
2023-05-08T08:28:50.554Z,28.69
2023-05-08T08:29:40.624Z,27.22
2023-05-08T08:30:30.652Z,26.74
2023-05-08T08:31:20.787Z,23.68
2023-05-08T08:32:10.763Z,31.67
2023-05-08T08:33:00.889Z,37.07
2023-05-08T08:33:50.901Z,34.39
2023-05-08T08:34:40.967Z,33.28
2023-05-08T08:35:31.043Z,36.38
2023-05-08T08:36:21.097Z,34.58
2023-05-08T08:37:13.740Z,35.89
2023-05-08T08:38:01.248Z,35.98
2023-05-08T08:38:51.264Z,36.72
2023-05-08T08:39:41.342Z,36.49
2023-05-08T08:40:31.503Z,38.63
2023-05-08T08:41:22.474Z,41.89
2023-05-08T08:42:11.499Z,36.31
2023-05-08T08:43:01.581Z,46.25
2023-05-08T08:43:51.613Z,45.50
2023-05-08T08:44:41.689Z,45.44
2023-05-08T08:45:31.705Z,44.18
2023-05-08T08:46:21.830Z,41.78
2023-05-08T08:47:11.846Z,39.34
2023-05-08T08:48:01.967Z,40.27
2023-05-08T08:48:51.989Z,46.17
2023-05-08T08:49:42.059Z,50.02
2023-05-08T08:50:32.127Z,45.21
2023-05-08T08:51:22.199Z,44.74
2023-05-08T08:52:12.267Z,43.74
2023-05-08T08:53:02.358Z,47.81
2023-05-08T08:53:52.395Z,44.18
2023-05-08T08:54:42.462Z,41.23
2023-05-08T08:55:32.508Z,40.41
2023-05-08T08:56:22.707Z,42.74
2023-05-08T08:57:12.629Z,37.42
2023-05-08T08:58:02.724Z,39.23
2023-05-08T08:58:52.737Z,40.12
2023-05-08T08:59:42.829Z,34.58
2023-05-08T09:00:32.877Z,35.11
2023-05-08T09:01:22.987Z,30.05
2023-05-08T09:02:13.148Z,32.58
2023-05-08T09:03:03.200Z,32.33
2023-05-08T09:03:53.259Z,29.00
2023-05-08T09:04:43.143Z,25.84
2023-05-08T09:05:33.198Z,26.44
2023-05-08T09:06:23.293Z,34.74
2023-05-08T09:07:13.342Z,25.84
2023-05-08T09:08:03.428Z,28.63
2023-05-08T09:08:53.449Z,33.17
2023-05-08T09:09:43.525Z,33.93
2023-05-08T09:10:33.551Z,35.63
2023-05-08T09:11:23.636Z,43.21
2023-05-08T09:12:13.831Z,40.52
2023-05-08T09:13:03.825Z,46.33
2023-05-08T09:13:53.794Z,43.81
2023-05-08T09:14:43.888Z,42.35
2023-05-08T09:15:33.898Z,43.28
2023-05-08T09:16:24.038Z,42.01
2023-05-08T09:17:14.035Z,45.26
2023-05-08T09:18:04.194Z,44.69
2023-05-08T09:18:54.131Z,48.74
2023-05-08T09:19:44.213Z,48.62
2023-05-08T09:20:34.265Z,51.42
2023-05-08T09:21:24.339Z,51.69
2023-05-08T09:22:14.406Z,50.50
2023-05-08T09:23:04.526Z,52.27
2023-05-08T09:23:54.536Z,54.24
2023-05-08T09:24:44.605Z,58.95
2023-05-08T09:25:34.672Z,58.10
2023-05-08T09:26:24.746Z,58.11
2023-05-08T09:27:14.803Z,65.51
2023-05-08T09:28:05.024Z,65.45
2023-05-08T09:28:54.942Z,63.59
2023-05-08T09:29:45.016Z,63.24
2023-05-08T09:30:35.053Z,62.68
2023-05-08T09:31:25.135Z,62.97
2023-05-08T09:32:15.184Z,66.78
2023-05-08T09:33:05.341Z,66.34
2023-05-08T09:33:55.782Z,68.68
2023-05-08T09:34:45.337Z,64.32
2023-05-08T09:35:35.403Z,68.63
2023-05-08T09:36:25.490Z,67.31
2023-05-08T09:37:15.545Z,70.86
2023-05-08T09:38:05.635Z,66.12
2023-05-08T09:38:55.669Z,67.46
2023-05-08T09:39:45.736Z,70.98
2023-05-08T09:40:35.792Z,69.00
2023-05-08T09:41:25.864Z,69.14
2023-05-08T09:42:15.945Z,68.56
2023-05-08T09:43:06.027Z,67.94
2023-05-08T09:43:56.202Z,72.62
2023-05-08T09:44:46.130Z,69.34
2023-05-08T09:45:36.239Z,70.37
2023-05-08T09:46:26.438Z,73.59
2023-05-08T09:47:16.301Z,74.02
2023-05-08T09:48:12.568Z,75.67
2023-05-08T09:48:56.459Z,74.81
2023-05-08T09:49:46.505Z,75.74
2023-05-08T09:50:36.577Z,76.35
2023-05-08T09:51:26.627Z,74.84
2023-05-08T09:52:16.705Z,79.55
2023-05-08T09:53:06.766Z,80.50
2023-05-08T09:53:56.845Z,74.12
2023-05-08T09:54:46.869Z,82.12
2023-05-08T09:55:36.938Z,76.63
2023-05-08T09:56:27.009Z,81.71
2023-05-08T09:57:17.077Z,82.97
2023-05-08T09:58:07.150Z,82.76
2023-05-08T09:58:57.222Z,78.88
2023-05-08T09:59:47.362Z,82.88
2023-05-08T10:00:37.334Z,81.82
2023-05-08T10:01:27.430Z,79.22
2023-05-08T10:02:17.420Z,77.73
2023-05-08T10:03:07.520Z,85.34
2023-05-08T10:03:57.613Z,84.63
2023-05-08T10:04:47.635Z,85.62
2023-05-08T10:05:37.676Z,84.19
2023-05-08T10:06:27.736Z,81.43
2023-05-08T10:07:17.802Z,83.11
2023-05-08T10:08:07.873Z,85.11
2023-05-08T10:08:57.978Z,85.74
2023-05-08T10:09:50.867Z,82.30
2023-05-08T10:10:38.033Z,82.39
2023-05-08T10:11:28.110Z,82.66
2023-05-08T10:12:18.170Z,83.87
2023-05-08T10:13:08.323Z,84.03
2023-05-08T10:13:58.354Z,82.90
2023-05-08T10:14:48.356Z,83.84
2023-05-08T10:15:38.596Z,81.89
2023-05-08T10:16:28.509Z,84.49
2023-05-08T10:17:18.841Z,76.88
2023-05-08T10:18:08.682Z,77.33
2023-05-08T10:18:58.615Z,77.93
2023-05-08T10:19:48.677Z,72.51
2023-05-08T10:20:38.741Z,76.55
2023-05-08T10:21:28.798Z,71.69
2023-05-08T10:22:18.869Z,74.43
2023-05-08T10:23:08.937Z,81.00
2023-05-08T10:23:59.017Z,77.81
2023-05-08T10:24:49.038Z,79.84
2023-05-08T10:25:39.115Z,73.81
2023-05-08T10:26:29.136Z,75.65
2023-05-08T10:27:19.219Z,79.41
2023-05-08T10:28:09.273Z,76.74
2023-05-08T10:28:59.373Z,78.80
2023-05-08T10:29:49.385Z,82.32
2023-05-08T10:30:39.465Z,77.95
2023-05-08T10:31:29.694Z,76.07
2023-05-08T10:32:19.564Z,77.53
2023-05-08T10:33:09.747Z,76.00
2023-05-08T10:33:59.715Z,78.11
2023-05-08T10:34:49.736Z,80.72
2023-05-08T10:35:39.802Z,78.46
2023-05-08T10:36:31.040Z,79.50
2023-05-08T10:37:20.081Z,79.71
2023-05-08T10:38:10.157Z,80.90
2023-05-08T10:39:00.207Z,81.97
2023-05-08T10:39:50.223Z,81.44
2023-05-08T10:40:40.286Z,78.92
2023-05-08T10:41:30.357Z,78.65
2023-05-08T10:42:20.419Z,78.38
2023-05-08T10:43:10.475Z,79.74
2023-05-08T10:44:02.537Z,73.28
2023-05-08T10:44:50.616Z,77.18